Time;durP1;ratioP1;P1;durP2;ratioP2;P2;SDS_P1;SDS_P2;PMS_P1;PMS_P2;Temp;Humidity;BMP_temperature;BMP_pressure;BME280_temperature;BME280_humidity;BME280_pressure;Samples;Min_cycle;Max_cycle;Signal;HPM_P1;HPM_P2
2024/01/18 00:00:23;;;;;;;1.98;0.10;;;;;;;-1.55;100.00;98292.78;5072994;28;20033;-70
2024/01/18 00:02:49;;;;;;;1.52;0.17;;;;;;;-1.59;100.00;98294.97;5071180;28;20501;-71
2024/01/18 00:05:17;;;;;;;1.50;0.20;;;;;;;-1.79;100.00;98275.41;5054845;28;20040;-71
2024/01/18 00:07:42;;;;;;;4.32;0.40;;;;;;;-1.77;100.00;98276.03;5054587;28;20111;-71
2024/01/18 00:10:08;;;;;;;4.70;0.50;;;;;;;-1.63;100.00;98308.69;5071421;28;20085;-71
2024/01/18 00:12:35;;;;;;;2.25;0.65;;;;;;;-1.70;100.00;98309.41;5054868;28;20486;-70
2024/01/18 00:15:01;;;;;;;2.20;0.22;;;;;;;-1.74;100.00;98313.41;5071057;28;20032;-71
2024/01/18 00:17:27;;;;;;;4.50;0.28;;;;;;;-1.78;100.00;98316.59;5072340;28;20035;-71
2024/01/18 00:19:54;;;;;;;2.22;0.20;;;;;;;-1.84;100.00;98317.31;5087801;28;20037;-70
2024/01/18 00:22:19;;;;;;;0.75;0.10;;;;;;;-1.88;100.00;98319.50;5055459;28;20032;-70
2024/01/18 00:24:45;;;;;;;3.13;0.28;;;;;;;-1.91;100.00;98328.56;5062467;28;20052;-70
2024/01/18 00:27:10;;;;;;;4.07;0.30;;;;;;;-1.94;100.00;98313.13;5075388;28;20063;-71
2024/01/18 00:29:35;;;;;;;2.70;0.20;;;;;;;-1.88;100.00;98321.31;5071505;28;20036;-71
2024/01/18 00:32:01;;;;;;;3.53;0.35;;;;;;;-1.95;100.00;98322.03;5072058;28;20032;-71
2024/01/18 00:34:26;;;;;;;4.57;0.30;;;;;;;-1.97;100.00;98323.19;5071686;28;20049;-71
2024/01/18 00:36:52;;;;;;;2.85;0.30;;;;;;;-2.00;100.00;98326.19;5089151;28;20094;-71
2024/01/18 00:39:19;;;;;;;1.88;0.28;;;;;;;-2.06;100.00;98325.09;5072106;28;20065;-70
2024/01/18 00:41:46;;;;;;;1.23;0.17;;;;;;;-1.97;100.00;98328.47;5071961;28;20115;-70
2024/01/18 00:44:11;;;;;;;1.67;0.20;;;;;;;-2.01;100.00;98324.56;5072848;28;20016;-70
2024/01/18 00:46:37;;;;;;;2.20;0.30;;;;;;;-2.06;100.00;98327.72;5070777;28;20453;-71
2024/01/18 00:49:02;;;;;;;2.03;0.20;;;;;;;-2.16;100.00;98330.59;5087881;28;20123;-70
2024/01/18 00:51:27;;;;;;;1.13;0.10;;;;;;;-2.28;100.00;98328.59;5088410;28;20044;-70
2024/01/18 00:53:53;;;;;;;3.03;0.30;;;;;;;-2.30;100.00;98341.94;5071442;28;20044;-70
2024/01/18 00:56:18;;;;;;;5.47;0.32;;;;;;;-2.40;100.00;98339.53;5072471;28;20029;-69
2024/01/18 00:58:44;;;;;;;3.92;0.40;;;;;;;-2.54;100.00;98348.22;5072384;28;20425;-71
2024/01/18 01:01:10;;;;;;;1.13;0.30;;;;;;;-2.57;100.00;98348.56;5071054;28;20021;-71
2024/01/18 01:03:36;;;;;;;2.08;0.20;;;;;;;-2.68;100.00;98352.44;5070859;28;20533;-70
2024/01/18 01:06:02;;;;;;;2.53;0.20;;;;;;;-2.74;100.00;98363.66;5087524;28;20115;-71
2024/01/18 01:08:27;;;;;;;2.17;0.20;;;;;;;-2.82;100.00;98361.06;5072204;28;20426;-71
2024/01/18 01:10:53;;;;;;;3.50;0.32;;;;;;;-2.83;100.00;98370.75;5075413;28;20086;-70
2024/01/18 01:13:20;;;;;;;1.73;0.22;;;;;;;-2.90;100.00;98374.28;5072184;28;20119;-70
2024/01/18 01:15:47;;;;;;;2.33;0.30;;;;;;;-2.99;100.00;98370.03;5071673;28;20060;-71
2024/01/18 01:18:12;;;;;;;1.42;0.15;;;;;;;-3.33;100.00;98344.88;5072587;28;20036;-70
2024/01/18 01:20:37;;;;;;;1.42;0.20;;;;;;;-3.16;100.00;98378.00;5070241;28;20038;-70
2024/01/18 01:23:03;;;;;;;4.60;0.30;;;;;;;-3.23;100.00;98384.13;5071344;28;20387;-70
2024/01/18 01:25:29;;;;;;;1.75;0.20;;;;;;;-3.35;100.00;98373.16;5071991;28;20048;-70
2024/01/18 01:27:54;;;;;;;2.03;0.20;;;;;;;-3.34;100.00;98399.28;5071479;28;20020;-70
2024/01/18 01:30:20;;;;;;;4.00;0.35;;;;;;;-3.43;100.00;98389.78;5072422;28;20033;-70
2024/01/18 01:32:46;;;;;;;4.05;0.32;;;;;;;-3.47;100.00;98396.38;5070658;28;20029;-71
2024/01/18 01:35:12;;;;;;;5.22;0.22;;;;;;;-3.49;100.00;98408.84;5073871;28;20049;-70
2024/01/18 01:37:37;;;;;;;4.20;0.40;;;;;;;-3.59;100.00;98402.97;5089924;28;20067;-71
2024/01/18 01:40:05;;;;;;;1.40;0.20;;;;;;;-3.60;100.00;98414.47;5076450;28;20040;-71
2024/01/18 01:42:32;;;;;;;2.58;0.20;;;;;;;-3.68;100.00;98417.09;5073931;28;20024;-70
2024/01/18 01:44:57;;;;;;;1.52;0.30;;;;;;;-3.72;100.00;98434.19;5074577;28;20115;-69
2024/01/18 01:47:23;;;;;;;5.50;0.38;;;;;;;-3.79;100.00;98428.78;5057997;28;20174;-70
2024/01/18 01:49:48;;;;;;;5.03;0.40;;;;;;;-3.87;100.00;98429.63;5073614;28;20414;-70
2024/01/18 01:52:15;;;;;;;4.30;0.40;;;;;;;-3.93;100.00;98429.47;5074060;28;20060;-70
2024/01/18 01:54:41;;;;;;;3.10;0.35;;;;;;;-3.97;100.00;98434.22;5075694;28;20025;-70
2024/01/18 01:57:07;;;;;;;4.10;0.40;;;;;;;-3.98;100.00;98440.44;5084084;28;20255;-70
2024/01/18 01:59:33;;;;;;;1.85;0.30;;;;;;;-3.98;100.00;98443.06;5075559;28;20554;-70
2024/01/18 02:01:58;;;;;;;3.88;0.28;;;;;;;-4.03;100.00;98450.63;5074021;28;20736;-69
2024/01/18 02:04:26;;;;;;;3.70;0.40;;;;;;;-4.57;100.00;98377.59;5075352;28;20033;-70
2024/01/18 02:06:54;;;;;;;3.53;0.40;;;;;;;-4.18;100.00;98460.13;5074602;28;20028;-69
2024/01/18 02:09:20;;;;;;;4.05;0.35;;;;;;;-4.25;100.00;98459.97;5075708;28;20103;-70
2024/01/18 02:11:46;;;;;;;4.30;0.30;;;;;;;-4.46;100.00;98441.25;5091273;28;20067;-70
2024/01/18 02:14:12;;;;;;;2.97;0.50;;;;;;;-4.28;100.00;98468.16;5073522;28;20470;-70
2024/01/18 02:16:37;;;;;;;2.50;0.32;;;;;;;-4.28;100.00;98474.22;5073929;28;20032;-69
2024/01/18 02:19:03;;;;;;;3.03;0.43;;;;;;;-4.59;100.00;98442.53;5090850;28;20040;-69
2024/01/18 02:21:29;;;;;;;2.03;0.30;;;;;;;-4.46;100.00;98484.06;5058112;28;20513;-69
2024/01/18 02:24:02;;;;;;;2.72;0.28;;;;;;;-4.72;100.00;98442.97;5074115;28;20032;-70
2024/01/18 02:26:27;;;;;;;1.33;0.30;;;;;;;-4.50;100.00;98501.94;5073996;28;20107;-69
2024/01/18 02:28:56;;;;;;;4.53;0.30;;;;;;;-4.77;100.00;98474.13;5057395;28;20070;-70
2024/01/18 02:31:22;;;;;;;0.55;0.10;;;;;;;-4.70;100.00;98511.06;5073584;28;20028;-70
2024/01/18 02:33:49;;;;;;;8.35;0.30;;;;;;;-4.73;100.00;98511.38;5073451;28;20024;-69
2024/01/18 02:36:15;;;;;;;4.22;0.20;;;;;;;-4.75;100.00;98508.88;5073420;28;20052;-69
2024/01/18 02:38:41;;;;;;;1.42;0.30;;;;;;;-4.96;100.00;98480.44;5073737;28;20105;-70
2024/01/18 02:41:06;;;;;;;3.63;0.30;;;;;;;-4.83;100.00;98508.03;5072752;28;20041;-69
2024/01/18 02:43:33;;;;;;;2.00;0.10;;;;;;;-5.05;100.00;98489.25;5072044;28;20039;-70
2024/01/18 02:45:59;;;;;;;3.40;0.30;;;;;;;-5.17;100.00;98481.81;5073366;28;20024;-70
2024/01/18 02:48:25;;;;;;;0.82;0.10;;;;;;;-5.13;100.00;98506.72;5089115;28;20100;-69
2024/01/18 02:50:50;;;;;;;2.20;0.35;;;;;;;-5.22;100.00;98505.88;5088931;28;20162;-69
2024/01/18 02:53:16;;;;;;;1.35;0.20;;;;;;;-5.36;100.00;98504.66;5054788;28;20723;-69
2024/01/18 02:55:41;;;;;;;0.47;0.10;;;;;;;-5.45;100.00;98505.56;5073311;28;20120;-69
2024/01/18 02:58:07;;;;;;;1.40;0.30;;;;;;;-5.63;100.00;98486.44;5073706;28;20032;-69
2024/01/18 03:00:32;;;;;;;1.98;0.25;;;;;;;-5.85;100.00;98466.81;5089398;28;20127;-70
2024/01/18 03:02:57;;;;;;;1.48;0.30;;;;;;;-5.66;100.00;98508.53;5071166;28;20074;-69
2024/01/18 03:05:23;;;;;;;1.55;0.20;;;;;;;-5.73;100.00;98502.25;5072140;28;20376;-69
2024/01/18 03:07:48;;;;;;;1.35;0.20;;;;;;;-5.80;100.00;98501.19;5073025;28;20033;-70
2024/01/18 03:10:13;;;;;;;4.10;0.50;;;;;;;-5.87;100.00;98508.84;5076483;28;20040;-70
2024/01/18 03:12:40;;;;;;;1.35;0.22;;;;;;;-5.92;100.00;98498.00;5075310;28;20382;-70
2024/01/18 03:15:08;;;;;;;3.80;1.15;;;;;;;-6.05;100.00;98503.66;5072063;28;20020;-70
2024/01/18 03:17:33;;;;;;;0.82;0.20;;;;;;;-6.04;100.00;98513.16;5073381;28;20028;-69
2024/01/18 03:19:58;;;;;;;2.33;0.25;;;;;;;-6.12;100.00;98509.63;5071826;28;20123;-69
2024/01/18 03:22:24;;;;;;;1.27;0.40;;;;;;;-6.20;100.00;98518.22;5072091;28;20032;-70
2024/01/18 03:24:50;;;;;;;2.42;0.43;;;;;;;-6.25;100.00;98513.44;5071117;28;20064;-70
2024/01/18 03:27:19;;;;;;;0.82;0.17;;;;;;;-6.25;100.00;98517.88;5071792;28;20036;-69
2024/01/18 03:29:45;;;;;;;2.72;1.02;;;;;;;-6.36;100.00;98529.34;5071753;28;20579;-69
2024/01/18 03:32:12;;;;;;;1.33;0.22;;;;;;;-6.45;100.00;98522.41;5088938;28;20037;-69
2024/01/18 03:34:38;;;;;;;2.05;0.20;;;;;;;-6.56;100.00;98523.41;5019004;28;1520990;-70
2024/01/18 03:37:03;;;;;;;2.67;0.30;;;;;;;-6.61;100.00;98525.66;5073001;28;20048;-70
2024/01/18 03:39:33;;;;;;;3.75;0.30;;;;;;;-6.69;100.00;98529.00;5055621;28;20044;-70
2024/01/18 03:41:58;;;;;;;2.17;0.47;;;;;;;-6.75;100.00;98534.00;5073721;28;20055;-69
2024/01/18 03:44:24;;;;;;;0.63;0.20;;;;;;;-6.82;100.00;98540.75;5055708;28;20036;-69
2024/01/18 03:46:49;;;;;;;2.45;0.10;;;;;;;-6.93;100.00;98539.16;5072328;28;20032;-70
2024/01/18 03:49:16;;;;;;;2.75;0.30;;;;;;;-7.01;100.00;98539.06;5055862;28;20029;-70
2024/01/18 03:51:42;;;;;;;1.77;0.32;;;;;;;-7.11;100.00;98552.97;5072450;28;20032;-70
2024/01/18 03:54:07;;;;;;;1.95;0.30;;;;;;;-7.19;100.00;98550.22;5072952;28;20025;-69
2024/01/18 03:56:33;;;;;;;0.75;0.20;;;;;;;-7.29;100.00;98565.09;5071429;28;20363;-70
2024/01/18 03:59:00;;;;;;;1.40;0.20;;;;;;;-7.40;100.00;98553.03;5072279;28;20032;-70
2024/01/18 04:01:30;;;;;;;1.40;0.95;;;;;;;-7.40;100.00;98563.47;5072555;28;20028;-69
2024/01/18 04:03:56;;;;;;;0.65;0.20;;;;;;;-7.42;100.00;98585.47;5071376;28;20387;-70
2024/01/18 04:06:21;;;;;;;0.55;0.20;;;;;;;-7.53;100.00;98585.63;5073579;28;20025;-71
2024/01/18 04:08:46;;;;;;;1.65;0.20;;;;;;;-7.70;100.00;98587.16;5055364;28;20032;-70
2024/01/18 04:11:12;;;;;;;0.47;0.10;;;;;;;-7.76;100.00;98590.31;5071738;28;20034;-70
2024/01/18 04:13:38;;;;;;;1.23;0.10;;;;;;;-7.80;100.00;98587.97;5071799;28;20170;-70
2024/01/18 04:16:04;;;;;;;3.20;0.30;;;;;;;-7.82;100.00;98589.88;5054958;28;20044;-70
2024/01/18 04:18:30;;;;;;;2.90;0.20;;;;;;;-7.86;100.00;98603.38;5059491;28;20028;-70
2024/01/18 04:21:01;;;;;;;1.27;0.20;;;;;;;-7.90;100.00;98607.22;5075716;28;20522;-70
2024/01/18 04:23:27;;;;;;;3.05;0.20;;;;;;;-8.03;100.00;98602.25;5075405;28;20040;-70
2024/01/18 04:25:53;;;;;;;0.85;0.13;;;;;;;-8.16;100.00;98602.50;5072939;28;20785;-70
2024/01/18 04:28:19;;;;;;;0.90;0.20;;;;;;;-8.19;100.00;98610.59;5071795;28;20048;-70
2024/01/18 04:30:45;;;;;;;1.38;0.32;;;;;;;-8.37;100.00;98583.53;5071607;28;20055;-69
2024/01/18 04:33:10;;;;;;;1.45;0.17;;;;;;;-8.19;100.00;98607.16;5071453;28;20390;-69
2024/01/18 04:35:36;;;;;;;1.88;0.22;;;;;;;-8.21;100.00;98615.13;5071467;28;20064;-70
2024/01/18 04:38:01;;;;;;;0.75;0.20;;;;;;;-8.23;100.00;98617.03;5070971;28;20036;-69
2024/01/18 04:40:26;;;;;;;1.88;0.22;;;;;;;-8.22;100.00;98623.09;5072123;28;20052;-69
2024/01/18 04:42:53;;;;;;;0.80;0.15;;;;;;;-8.24;100.00;98620.63;5070983;28;20032;-69
2024/01/18 04:45:18;;;;;;;1.55;0.17;;;;;;;-8.24;100.00;98619.78;5071249;28;20406;-69
2024/01/18 04:47:43;;;;;;;0.73;0.20;;;;;;;-8.28;100.00;98627.03;5072656;28;20043;-69
2024/01/18 04:50:09;;;;;;;0.82;0.20;;;;;;;-8.35;100.00;98621.53;5072728;28;20394;-69
2024/01/18 04:52:36;;;;;;;0.38;0.03;;;;;;;-8.34;100.00;98633.63;5055029;28;20050;-69
2024/01/18 04:55:05;;;;;;;1.08;0.10;;;;;;;-8.63;100.00;98589.25;5054486;28;20032;-70
2024/01/18 04:57:32;;;;;;;1.73;0.20;;;;;;;-8.40;100.00;98634.19;5072749;28;20032;-68
2024/01/18 04:59:58;;;;;;;2.65;0.55;;;;;;;-8.53;100.00;98634.41;5072368;28;20474;-69
2024/01/18 05:02:23;;;;;;;3.20;0.20;;;;;;;-8.63;100.00;98633.56;5071853;28;20085;-69
2024/01/18 05:04:49;;;;;;;0.25;0.10;;;;;;;-8.64;100.00;98638.88;5087781;28;20031;-70
2024/01/18 05:07:14;;;;;;;1.65;0.30;;;;;;;-8.68;100.00;98637.50;5071029;28;20032;-70
2024/01/18 05:09:40;;;;;;;0.30;0.10;;;;;;;-8.67;100.00;98642.59;5072188;28;20113;-69
2024/01/18 05:12:07;;;;;;;2.75;0.28;;;;;;;-8.64;100.00;98644.09;5068089;28;20029;-69
2024/01/18 05:14:32;;;;;;;4.28;0.20;;;;;;;-8.66;100.00;98651.25;5071687;28;20024;-69
2024/01/18 05:17:05;;;;;;;3.17;0.20;;;;;;;-8.92;100.00;98619.56;5068872;28;20059;-69
2024/01/18 05:19:31;;;;;;;0.70;0.13;;;;;;;-8.93;100.00;98638.75;5070180;28;20120;-69
2024/01/18 05:21:58;;;;;;;4.00;0.20;;;;;;;-8.96;100.00;98650.25;5070483;28;20054;-69
2024/01/18 05:24:24;;;;;;;1.00;0.45;;;;;;;-8.98;100.00;98652.97;5068760;28;20055;-68
2024/01/18 05:26:49;;;;;;;3.88;0.30;;;;;;;-9.00;100.00;98649.69;5072233;28;20036;-69
2024/01/18 05:29:15;;;;;;;2.15;0.20;;;;;;;-9.16;100.00;98654.53;5075709;28;20112;-69
2024/01/18 05:31:40;;;;;;;4.32;0.40;;;;;;;-9.24;100.00;98660.38;5041820;28;20033;-70
2024/01/18 05:34:05;;;;;;;1.77;0.30;;;;;;;-9.35;100.00;98670.84;5054299;28;20390;-70
2024/01/18 05:36:31;;;;;;;2.55;1.33;;;;;;;-9.44;100.00;98679.41;5053445;28;20040;-68
2024/01/18 05:38:56;;;;;;;3.08;0.22;;;;;;;-9.57;100.00;98666.56;5053668;28;20035;-69
2024/01/18 05:41:22;;;;;;;4.78;0.50;;;;;;;-9.53;100.00;98670.56;5037417;28;20555;-69
2024/01/18 05:43:47;;;;;;;1.42;0.15;;;;;;;-9.49;100.00;98679.78;5053928;28;20074;-69
2024/01/18 05:46:13;;;;;;;1.58;0.25;;;;;;;-9.46;100.00;98681.31;5072203;28;20043;-70
2024/01/18 05:48:38;;;;;;;0.32;0.10;;;;;;;-9.51;100.00;98686.06;5053793;28;20037;-70
2024/01/18 05:51:04;;;;;;;0.63;0.25;;;;;;;-9.53;100.00;98693.19;5070994;28;20060;-69
2024/01/18 05:53:29;;;;;;;2.60;0.40;;;;;;;-9.56;100.00;98689.03;5071649;28;20382;-70
2024/01/18 05:55:55;;;;;;;0.85;0.40;;;;;;;-9.56;100.00;98696.84;5069757;28;20059;-69
2024/01/18 05:58:20;;;;;;;1.83;0.20;;;;;;;-9.59;100.00;98701.47;5084460;28;20040;-69
2024/01/18 06:00:46;;;;;;;1.77;0.20;;;;;;;-9.60;100.00;98708.47;5051927;28;20530;-69
2024/01/18 06:03:11;;;;;;;0.50;0.25;;;;;;;-9.60;100.00;98705.88;5085300;28;20529;-69
2024/01/18 06:05:36;;;;;;;1.48;0.28;;;;;;;-9.62;100.00;98712.97;5051348;28;20056;-69
2024/01/18 06:08:02;;;;;;;3.83;0.30;;;;;;;-9.64;100.00;98720.06;5085551;28;20021;-69
2024/01/18 06:10:27;;;;;;;0.85;0.10;;;;;;;-9.94;100.00;98684.28;5067098;28;20269;-70
2024/01/18 06:12:53;;;;;;;4.07;0.20;;;;;;;-9.77;100.00;98720.19;5069331;28;20103;-70
2024/01/18 06:15:19;;;;;;;3.17;0.20;;;;;;;-9.81;100.00;98734.41;5068947;28;20056;-70
2024/01/18 06:17:44;;;;;;;0.70;0.20;;;;;;;-9.91;100.00;98736.09;5067449;28;20037;-70
2024/01/18 06:20:10;;;;;;;1.73;0.30;;;;;;;-9.94;100.00;98741.53;5068515;28;20056;-70
2024/01/18 06:22:35;;;;;;;4.28;0.40;;;;;;;-9.93;100.00;98736.22;5070380;28;20037;-69
2024/01/18 06:25:00;;;;;;;1.98;0.20;;;;;;;-9.93;100.00;98733.63;5070608;28;20051;-70
2024/01/18 06:27:26;;;;;;;1.05;0.20;;;;;;;-9.87;100.00;98739.25;5071042;28;20039;-70
2024/01/18 06:30:28;;;;;;;2.10;0.20;;;;;;;-9.89;100.00;98747.22;5074352;28;20036;-71
2024/01/18 06:33:05;;;;;;;4.63;0.25;;;;;;;-10.21;100.00;98701.13;5081664;28;20024;-70
2024/01/18 06:35:32;;;;;;;1.08;0.30;;;;;;;-9.95;100.00;98751.09;5062008;28;20048;-70
2024/01/18 06:37:57;;;;;;;1.85;0.10;;;;;;;-10.00;100.00;98747.19;5063036;28;20399;-70
2024/01/18 06:40:23;;;;;;;2.47;0.30;;;;;;;-9.98;100.00;98755.72;5062883;28;20024;-70
2024/01/18 06:42:48;;;;;;;0.63;0.30;;;;;;;-10.03;100.00;98757.84;5058522;28;20111;-70
2024/01/18 06:45:14;;;;;;;2.35;0.43;;;;;;;-10.06;100.00;98764.13;5073538;28;20404;-70
2024/01/18 06:47:39;;;;;;;2.53;0.40;;;;;;;-10.06;100.00;98764.13;5074026;28;20043;-70
2024/01/18 06:50:05;;;;;;;0.73;0.20;;;;;;;-10.04;100.00;98764.81;5074467;28;20025;-70
2024/01/18 06:52:31;;;;;;;1.40;0.30;;;;;;;-9.96;100.00;98766.84;5074117;28;20079;-70
2024/01/18 06:54:57;;;;;;;0.98;0.30;;;;;;;-9.96;100.00;98767.66;5056591;28;20479;-69
2024/01/18 06:57:22;;;;;;;3.20;0.20;;;;;;;-9.96;100.00;98772.06;5073639;28;20020;-70
2024/01/18 06:59:49;;;;;;;3.53;0.28;;;;;;;-9.99;100.00;98767.91;5057061;28;20119;-69
2024/01/18 07:02:14;;;;;;;0.38;0.20;;;;;;;-9.99;100.00;98767.91;5072898;28;20033;-70
2024/01/18 07:04:39;;;;;;;1.83;0.22;;;;;;;-10.00;100.00;98757.59;5072325;28;20032;-70
2024/01/18 07:07:05;;;;;;;2.72;0.22;;;;;;;-10.01;100.00;98768.97;5072394;28;20371;-69
2024/01/18 07:09:32;;;;;;;4.00;0.38;;;;;;;-10.02;100.00;98772.53;5071863;28;20062;-69
2024/01/18 07:11:58;;;;;;;1.55;0.20;;;;;;;-10.00;100.00;98776.66;5071946;28;20380;-70
2024/01/18 07:14:23;;;;;;;1.27;0.30;;;;;;;-9.99;100.00;98769.69;5072187;28;20035;-71
2024/01/18 07:16:49;;;;;;;2.67;0.17;;;;;;;-10.14;100.00;98737.88;5073129;28;20111;-70
2024/01/18 07:19:14;;;;;;;1.38;0.30;;;;;;;-9.93;100.00;98761.41;5072463;28;20055;-69
2024/01/18 07:21:40;;;;;;;3.00;0.10;;;;;;;-9.89;100.00;98767.19;5071400;28;20039;-69
2024/01/18 07:24:06;;;;;;;1.65;0.10;;;;;;;-9.84;100.00;98780.66;5072742;28;20032;-69
2024/01/18 07:26:32;;;;;;;4.30;0.50;;;;;;;-9.91;100.00;98782.91;5071765;28;20475;-70
2024/01/18 07:28:57;;;;;;;3.40;0.70;;;;;;;-10.12;100.00;98782.81;5071535;28;20032;-71
2024/01/18 07:31:22;;;;;;;2.15;1.17;;;;;;;-10.34;100.00;98796.66;5072975;28;20105;-70
2024/01/18 07:33:50;;;;;;;4.53;2.00;;;;;;;-10.52;100.00;98793.66;5088171;28;20067;-70
2024/01/18 07:36:15;;;;;;;6.00;2.50;;;;;;;-10.73;100.00;98790.06;5072235;28;20052;-71
2024/01/18 07:38:41;;;;;;;4.28;1.75;;;;;;;-10.89;100.00;98795.59;5070610;28;20036;-70
2024/01/18 07:41:07;;;;;;;4.38;0.95;;;;;;;-10.82;100.00;98789.00;5073313;28;20035;-71
2024/01/18 07:43:32;;;;;;;3.92;1.27;;;;;;;-10.95;100.00;98755.31;5072963;28;20100;-70
2024/01/18 07:45:57;;;;;;;4.70;1.20;;;;;;;-10.64;100.00;98794.59;5073041;28;20047;-69
2024/01/18 07:48:23;;;;;;;4.03;1.40;;;;;;;-10.71;100.00;98796.00;5088979;28;20033;-70
2024/01/18 07:50:48;;;;;;;237.02;93.97;;;;;;;-10.79;100.00;98791.38;5071572;28;20032;-70
2024/01/18 07:53:14;;;;;;;40.15;18.10;;;;;;;-10.80;100.00;98800.09;5071859;28;20071;-70
2024/01/18 07:55:40;;;;;;;17.15;7.90;;;;;;;-11.07;100.00;98779.56;5071733;28;20397;-70
2024/01/18 07:58:06;;;;;;;12.60;5.63;;;;;;;-10.85;100.00;98815.19;5071650;28;20025;-70
2024/01/18 08:00:32;;;;;;;7.45;4.05;;;;;;;-10.89;100.00;98808.59;5055134;28;20398;-70
2024/01/18 08:02:57;;;;;;;12.60;4.07;;;;;;;-10.95;100.00;98819.41;5054896;28;20028;-70
2024/01/18 08:05:24;;;;;;;8.00;3.42;;;;;;;-10.99;100.00;98815.34;5054645;28;20036;-70
2024/01/18 08:07:49;;;;;;;5.85;2.78;;;;;;;-11.02;100.00;98813.00;5072524;28;20104;-69
2024/01/18 08:10:15;;;;;;;6.40;2.88;;;;;;;-10.96;100.00;98810.78;5072499;28;20155;-70
2024/01/18 08:12:44;;;;;;;5.10;2.17;;;;;;;-10.88;100.00;98807.63;5071012;28;20040;-70
2024/01/18 08:15:11;;;;;;;5.35;1.50;;;;;;;-10.74;100.00;98814.41;5070997;28;20024;-70
2024/01/18 08:17:37;;;;;;;3.47;1.45;;;;;;;-10.63;100.00;98811.00;5072444;28;20028;-69
2024/01/18 08:20:12;;;;;;;6.38;1.85;;;;;;;-10.48;100.00;98815.88;5088047;28;20383;-70
2024/01/18 08:22:41;;;;;;;5.05;0.80;;;;;;;-10.78;100.00;98740.22;5055250;28;20029;-70
2024/01/18 08:25:08;;;;;;;1.77;0.50;;;;;;;-10.26;100.00;98789.09;5087810;28;20028;-70
2024/01/18 08:27:33;;;;;;;3.17;0.43;;;;;;;-9.91;100.00;98826.31;5072114;28;20028;-70
2024/01/18 08:29:59;;;;;;;3.58;0.40;;;;;;;-9.76;100.00;98818.16;5070617;28;20547;-71
2024/01/18 08:32:31;;;;;;;1.55;0.32;;;;;;;-9.53;100.00;98821.56;5070528;28;20074;-70
2024/01/18 08:34:57;;;;;;;1.73;0.60;;;;;;;-9.29;100.00;98826.59;5072263;28;20075;-70
2024/01/18 08:37:22;;;;;;;2.28;0.70;;;;;;;-9.10;100.00;98820.75;5088153;28;20491;-70
2024/01/18 08:39:48;;;;;;;6.60;0.85;;;;;;;-8.87;100.00;98813.69;5087979;28;20063;-70
2024/01/18 08:42:14;;;;;;;1.27;0.60;;;;;;;-8.65;100.00;98812.75;5087723;28;20489;-69
2024/01/18 08:44:45;;;;;;;4.07;0.82;;;;;;;-8.46;100.00;98806.00;5070773;28;20082;-69
2024/01/18 08:47:11;;;;;;;6.97;1.20;;;;;;;-8.33;100.00;98812.66;5087707;28;20039;-70
2024/01/18 08:49:36;;;;;;;5.15;0.80;;;;;;;-8.18;100.00;98814.91;5071399;28;20143;-69
2024/01/18 08:52:02;;;;;;;1.40;0.45;;;;;;;-8.29;100.00;98779.31;5070620;28;20067;-69
2024/01/18 08:54:27;;;;;;;2.75;0.70;;;;;;;-7.87;100.00;98824.44;5071916;28;20055;-70
2024/01/18 08:56:53;;;;;;;4.43;0.70;;;;;;;-7.78;100.00;98838.50;5070768;28;20066;-70
2024/01/18 08:59:19;;;;;;;2.55;1.00;;;;;;;-7.71;100.00;98830.97;5087795;28;20034;-70
2024/01/18 09:01:44;;;;;;;3.33;0.82;;;;;;;-7.80;100.00;98843.00;5070666;28;20402;-70
2024/01/18 09:04:10;;;;;;;1.58;0.60;;;;;;;-7.90;100.00;98858.63;5071601;28;20021;-70
2024/01/18 09:06:37;;;;;;;4.72;2.75;;;;;;;-8.11;100.00;98844.75;5086831;28;20032;-70
2024/01/18 09:09:03;;;;;;;10.25;6.70;;;;;;;-8.14;100.00;98882.38;5086681;28;20051;-70
2024/01/18 09:11:29;;;;;;;3.10;1.20;;;;;;;-8.36;100.00;98887.72;5053537;28;20165;-70
2024/01/18 09:13:54;;;;;;;2.95;1.58;;;;;;;-8.54;100.00;98861.41;5086737;28;20093;-70
2024/01/18 09:16:19;;;;;;;7.00;2.50;;;;;;;-8.41;100.00;98872.50;5069877;28;20039;-70
2024/01/18 09:18:45;;;;;;;4.75;1.88;;;;;;;-8.32;100.00;98884.72;5069689;28;20035;-70
2024/01/18 09:21:10;;;;;;;3.75;2.30;;;;;;;-8.24;100.00;98876.28;5086727;28;20032;-70
2024/01/18 09:23:36;;;;;;;6.60;1.80;;;;;;;-8.13;100.00;98878.81;5053585;28;20403;-70
2024/01/18 09:26:01;;;;;;;6.00;1.10;;;;;;;-7.99;100.00;98879.44;5071245;28;20112;-69
2024/01/18 09:28:27;;;;;;;3.03;1.30;;;;;;;-7.84;100.00;98880.78;5069778;28;20028;-70
2024/01/18 09:30:53;;;;;;;7.95;3.40;;;;;;;-7.71;100.00;98880.56;5071880;28;20458;-69
2024/01/18 09:33:20;;;;;;;5.20;2.20;;;;;;;-7.62;100.00;98879.75;5071035;28;20036;-70
2024/01/18 09:35:45;;;;;;;6.57;3.28;;;;;;;-7.65;100.00;98878.25;5086646;28;20048;-69
2024/01/18 09:38:11;;;;;;;3.72;1.88;;;;;;;-7.66;100.00;98875.75;5071354;28;20043;-70
2024/01/18 09:40:39;;;;;;;5.57;1.95;;;;;;;-7.85;100.00;98850.38;5070122;28;20115;-70
2024/01/18 09:43:08;;;;;;;8.18;3.28;;;;;;;-7.63;100.00;98883.34;5086734;28;20025;-70
2024/01/18 09:45:38;;;;;;;11.30;5.57;;;;;;;-7.58;100.00;98887.22;5069983;28;20089;-70
2024/01/18 09:48:04;;;;;;;9.95;2.95;;;;;;;-7.41;100.00;98879.72;5071470;28;20107;-69
2024/01/18 09:50:32;;;;;;;4.50;2.33;;;;;;;-7.25;100.00;98885.28;5071219;28;20127;-70
2024/01/18 09:52:58;;;;;;;8.73;3.20;;;;;;;-7.25;100.00;98887.91;5086790;28;20031;-70
2024/01/18 09:55:25;;;;;;;5.65;2.80;;;;;;;-7.26;100.00;98888.84;5070017;28;20024;-70
2024/01/18 09:57:55;;;;;;;15.23;5.57;;;;;;;-7.00;100.00;98891.78;5053012;28;20082;-70
2024/01/18 10:00:26;;;;;;;10.27;4.90;;;;;;;-6.73;100.00;98885.09;5071148;28;20043;-70
2024/01/18 10:02:52;;;;;;;4.43;2.78;;;;;;;-6.37;100.00;98875.72;5071682;28;20024;-70
2024/01/18 10:05:18;;;;;;;2.63;1.30;;;;;;;-5.99;100.00;98887.13;5073788;28;20090;-70
2024/01/18 10:07:45;;;;;;;2.83;0.63;;;;;;;-5.65;100.00;98876.94;5073380;28;20525;-70
2024/01/18 10:10:13;;;;;;;1.88;0.47;;;;;;;-5.36;100.00;98855.88;5073662;28;20052;-70
2024/01/18 10:12:41;;;;;;;2.33;0.40;;;;;;;-4.66;100.00;98887.59;5073207;28;20040;-69
2024/01/18 10:15:07;;;;;;;3.03;0.40;;;;;;;-4.16;100.00;98883.59;5073128;28;20624;-70
2024/01/18 10:17:33;;;;;;;0.10;0.10;;;;;;;-3.78;100.00;98879.75;5073049;28;20148;-70
2024/01/18 10:20:00;;;;;;;5.20;0.60;;;;;;;-3.39;100.00;98871.44;5056128;28;20478;-70
2024/01/18 10:22:26;;;;;;;1.15;0.30;;;;;;;-3.16;100.00;98872.50;5090271;28;20038;-70
2024/01/18 10:24:52;;;;;;;4.18;0.35;;;;;;;-2.90;100.00;98874.25;5072780;28;20036;-70
2024/01/18 10:27:21;;;;;;;9.50;2.45;;;;;;;-2.64;100.00;98871.53;5074607;28;20115;-70
2024/01/18 10:29:49;;;;;;;10.65;3.63;;;;;;;-2.55;100.00;98867.06;5073985;28;20115;-70
2024/01/18 10:32:16;;;;;;;2.10;0.60;;;;;;;-2.40;100.00;98850.47;5072803;28;20365;-70
2024/01/18 10:34:42;;;;;;;0.88;0.50;;;;;;;-2.05;100.00;98890.66;5072397;28;20052;-70
2024/01/18 10:37:12;;;;;;;1.02;0.32;;;;;;;-1.86;100.00;98884.19;5089076;28;20035;-70
2024/01/18 10:39:39;;;;;;;3.33;0.20;;;;;;;-1.76;100.00;98886.66;5077987;28;20048;-70
2024/01/18 10:42:07;;;;;;;0.63;0.17;;;;;;;-1.64;100.00;98882.69;5077376;28;20048;-69
2024/01/18 10:44:38;;;;;;;0.70;0.20;;;;;;;-1.53;100.00;98894.69;5075077;28;20028;-71
2024/01/18 10:47:11;;;;;;;1.17;0.20;;;;;;;-1.60;100.00;98868.16;5073050;28;20028;-70
2024/01/18 10:49:37;;;;;;;1.73;0.80;;;;;;;-1.35;100.00;98894.50;5073848;28;20056;-70
2024/01/18 10:52:08;;;;;;;0.40;0.20;;;;;;;-1.25;100.00;98889.84;5073172;28;20449;-70
2024/01/18 10:54:34;;;;;;;1.15;0.32;;;;;;;-1.14;100.00;98894.75;5073040;28;20012;-70
2024/01/18 10:57:00;;;;;;;0.82;0.10;;;;;;;-1.05;100.00;98899.00;5071911;28;20024;-70
2024/01/18 10:59:28;;;;;;;2.47;0.20;;;;;;;-0.95;100.00;98899.63;5073457;28;20029;-70
2024/01/18 11:02:01;;;;;;;1.67;0.20;;;;;;;-0.87;100.00;98905.84;5073314;28;20035;-70
2024/01/18 11:04:27;;;;;;;2.40;0.17;;;;;;;-0.83;100.00;98908.00;5071903;28;20036;-70
2024/01/18 11:06:58;;;;;;;3.33;0.30;;;;;;;-0.75;100.00;98915.03;5071950;28;20509;-70
2024/01/18 11:09:26;;;;;;;2.65;0.30;;;;;;;-0.70;100.00;98902.13;5072970;28;20020;-70
2024/01/18 11:11:54;;;;;;;1.42;0.20;;;;;;;-0.62;100.00;98915.28;5055131;28;20112;-70
2024/01/18 11:14:20;;;;;;;2.22;0.32;;;;;;;-0.59;100.00;98912.31;5088184;28;20498;-70
2024/01/18 11:16:46;;;;;;;0.50;0.15;;;;;;;-0.41;100.00;98921.78;5072050;28;20067;-71
2024/01/18 11:19:12;;;;;;;2.22;0.30;;;;;;;-0.36;100.00;98925.56;5071269;28;20067;-71